Time;durP1;ratioP1;P1;durP2;ratioP2;P2;SDS_P1;SDS_P2;PMS_P1;PMS_P2;Temp;Humidity;BMP_temperature;BMP_pressure;BME280_temperature;BME280_humidity;BME280_pressure;Samples;Min_cycle;Max_cycle;Signal;HPM_P1;HPM_P2
2022/11/11 00:01:59;;;;;;;12.52;2.45;;;;;;;12.19;100.00;102136.31;4917961;29;20680;-46
2022/11/11 00:04:43;;;;;;;10.88;2.83;;;;;;;12.15;100.00;102130.13;4923171;29;20253;-44
2022/11/11 00:07:27;;;;;;;10.95;2.60;;;;;;;12.19;100.00;102139.00;4917049;29;20730;-46
2022/11/11 00:10:11;;;;;;;11.63;3.35;;;;;;;12.16;100.00;102129.22;4917069;29;20282;-45
2022/11/11 00:13:02;;;;;;;11.05;2.63;;;;;;;12.20;100.00;102138.97;4919962;29;20269;-47
2022/11/11 00:15:47;;;;;;;11.23;3.03;;;;;;;12.18;100.00;102127.38;4913576;29;20656;-44
2022/11/11 00:27:33;;;;;;;13.00;3.05;;;;;;;12.14;100.00;102174.03;4916524;29;20202;-45
2022/11/11 00:30:18;;;;;;;12.02;3.30;;;;;;;12.18;100.00;102166.78;4916118;29;20206;-47
2022/11/11 00:33:02;;;;;;;10.18;2.75;;;;;;;12.17;100.00;102184.69;4916249;29;20210;-46
2022/11/11 00:35:52;;;;;;;9.52;3.05;;;;;;;12.13;100.00;102186.59;4913111;29;20254;-44
2022/11/11 00:38:45;;;;;;;13.00;3.30;;;;;;;12.11;100.00;102193.81;4916057;29;20283;-46
2022/11/11 00:41:29;;;;;;;13.68;3.60;;;;;;;12.12;100.00;102183.94;4914123;29;20227;-46
2022/11/11 00:44:13;;;;;;;9.68;3.03;;;;;;;12.10;100.00;102185.78;4913685;29;20279;-45
2022/11/11 00:53:07;;;;;;;12.48;2.90;;;;;;;12.13;100.00;102189.28;4915712;29;20198;-45
2022/11/11 00:55:52;;;;;;;10.35;3.05;;;;;;;12.11;100.00;102200.97;4915238;29;20251;-45
2022/11/11 00:58:36;;;;;;;10.63;2.20;;;;;;;12.07;100.00;102205.53;4918005;29;20225;-46
2022/11/11 01:01:20;;;;;;;8.05;2.53;;;;;;;12.05;100.00;102207.38;4920553;29;20222;-44
2022/11/11 01:04:04;;;;;;;11.38;2.65;;;;;;;12.04;100.00;102200.22;4921705;29;20678;-45
2022/11/11 01:06:49;;;;;;;10.80;2.70;;;;;;;12.04;100.00;102193.97;4922486;29;20218;-45
2022/11/11 01:09:32;;;;;;;11.40;2.85;;;;;;;12.13;100.00;102204.50;4918168;29;20572;-45
2022/11/11 01:12:17;;;;;;;12.30;2.60;;;;;;;12.11;100.00;102214.38;4921094;29;20385;-45
2022/11/11 01:15:01;;;;;;;7.93;2.15;;;;;;;12.07;100.00;102207.31;4921040;29;20258;-46
2022/11/11 01:17:45;;;;;;;9.07;2.47;;;;;;;12.03;100.00;102201.16;4921423;29;20214;-43
2022/11/11 01:20:29;;;;;;;11.32;2.83;;;;;;;12.04;100.00;102204.72;4921733;29;20206;-44
2022/11/11 01:23:13;;;;;;;12.68;2.97;;;;;;;12.07;100.00;102192.09;4919573;29;20254;-44
2022/11/11 01:26:22;;;;;;;11.65;2.72;;;;;;;12.00;100.00;102186.88;4923988;29;20735;-46
2022/11/11 01:29:06;;;;;;;13.30;2.90;;;;;;;11.99;100.00;102174.38;4921111;29;20206;-45
2022/11/11 01:31:50;;;;;;;11.45;2.97;;;;;;;12.01;100.00;102167.19;4928938;29;20210;-44
2022/11/11 01:34:34;;;;;;;14.05;3.08;;;;;;;12.00;100.00;102152.84;4923980;29;20558;-44
2022/11/11 01:37:18;;;;;;;7.32;2.45;;;;;;;11.99;100.00;102153.78;4926175;29;20273;-47
2022/11/11 01:40:03;;;;;;;13.05;2.80;;;;;;;12.04;100.00;102143.81;4933647;28;20664;-44
2022/11/11 01:42:53;;;;;;;7.90;3.05;;;;;;;12.06;100.00;102151.84;4930391;28;20278;-46
2022/11/11 01:45:48;;;;;;;14.27;3.60;;;;;;;12.01;100.00;102132.25;4917613;29;20723;-46
2022/11/11 01:52:12;;;;;;;10.40;2.67;;;;;;;12.02;100.00;102128.66;4923856;29;20199;-47
2022/11/11 01:55:05;;;;;;;10.25;2.65;;;;;;;11.98;100.00;102129.63;4932570;29;20289;-44
2022/11/11 01:57:59;;;;;;;10.98;2.67;;;;;;;11.94;100.00;102134.22;4921526;29;20199;-43
2022/11/11 02:00:44;;;;;;;9.68;2.92;;;;;;;11.90;100.00;102143.25;4920355;29;20289;-46
2022/11/11 02:03:32;;;;;;;9.05;3.00;;;;;;;11.94;100.00;102156.56;4918291;29;20218;-45
2022/11/11 02:06:16;;;;;;;11.20;3.35;;;;;;;11.88;100.00;102147.78;4921219;29;20215;-44
2022/11/11 02:09:01;;;;;;;10.73;3.00;;;;;;;11.90;100.00;102152.19;4919032;29;20207;-46
2022/11/11 02:14:52;;;;;;;10.18;2.67;;;;;;;11.89;100.00;102161.16;4918097;29;20317;-47
2022/11/11 02:17:36;;;;;;;14.13;3.03;;;;;;;11.88;100.00;102164.75;4917089;29;20207;-44
2022/11/11 02:20:25;;;;;;;12.73;3.22;;;;;;;11.90;100.00;102162.94;4914841;29;20319;-44
2022/11/11 02:23:15;;;;;;;16.08;4.13;;;;;;;11.94;100.00;102151.19;4924874;29;20653;-45
2022/11/11 02:26:01;;;;;;;12.07;3.17;;;;;;;11.87;100.00;102162.06;4919536;29;20270;-46
2022/11/11 02:28:46;;;;;;;13.48;2.97;;;;;;;11.86;100.00;102165.69;4921660;29;20210;-44
2022/11/11 02:31:31;;;;;;;13.73;3.13;;;;;;;11.85;100.00;102167.50;4918917;29;20211;-47
2022/11/11 02:34:15;;;;;;;11.68;3.20;;;;;;;11.84;100.00;102170.22;4918969;29;20198;-43
2022/11/11 02:37:02;;;;;;;13.27;2.80;;;;;;;11.88;100.00;102180.00;4921852;29;20330;-46
2022/11/11 02:39:48;;;;;;;10.90;2.92;;;;;;;11.87;100.00;102160.28;4919471;29;20227;-46
2022/11/11 02:42:35;;;;;;;16.63;3.90;;;;;;;11.88;100.00;102180.88;4917835;29;20731;-44
2022/11/11 02:45:19;;;;;;;12.75;3.67;;;;;;;11.87;100.00;102173.72;4917827;29;20313;-45
2022/11/11 02:48:03;;;;;;;19.75;3.85;;;;;;;11.91;100.00;102180.78;4918556;29;20215;-46
2022/11/11 02:50:47;;;;;;;12.43;3.15;;;;;;;11.88;100.00;102177.31;4914367;29;20238;-44
2022/11/11 02:53:31;;;;;;;11.68;3.35;;;;;;;11.87;100.00;102168.34;4917445;29;20218;-45
2022/11/11 02:57:06;;;;;;;12.27;3.10;;;;;;;11.91;100.00;102174.53;4917628;29;20296;-46
2022/11/11 02:59:22;;;;;;;15.95;3.72;;;;;;;11.92;100.00;102179.91;4922100;28;20704;-47
2022/11/11 03:02:07;;;;;;;15.05;3.72;;;;;;;11.89;100.00;102188.00;4917361;29;20220;-43
2022/11/11 03:04:51;;;;;;;16.35;3.80;;;;;;;11.88;100.00;102180.88;4921504;29;20263;-45
2022/11/11 03:07:34;;;;;;;11.73;3.63;;;;;;;11.85;100.00;102175.56;4919373;29;20313;-43
2022/11/11 03:10:18;;;;;;;14.15;3.28;;;;;;;11.85;100.00;102186.28;4920705;29;20265;-45
2022/11/11 03:13:02;;;;;;;13.90;4.43;;;;;;;11.88;100.00;102182.69;4914702;29;21043;-46
2022/11/11 03:15:46;;;;;;;10.95;3.22;;;;;;;11.83;100.00;102174.69;4917862;29;20218;-45
2022/11/11 03:18:30;;;;;;;12.85;3.88;;;;;;;11.86;100.00;102177.31;4923025;29;20234;-47
2022/11/11 03:21:14;;;;;;;16.23;3.53;;;;;;;11.83;100.00;102188.13;4915974;29;20663;-45
2022/11/11 03:23:58;;;;;;;15.45;3.75;;;;;;;11.79;100.00;102191.78;4916882;29;20249;-47
2022/11/11 03:26:42;;;;;;;11.63;3.15;;;;;;;11.78;100.00;102192.69;4915302;29;20223;-46
2022/11/11 03:29:26;;;;;;;11.40;3.67;;;;;;;11.79;100.00;102198.97;4912537;29;20194;-45
2022/11/11 03:32:11;;;;;;;13.25;3.70;;;;;;;11.80;100.00;102212.34;4914518;29;20283;-44
2022/11/11 03:34:55;;;;;;;15.20;4.38;;;;;;;11.73;100.00;102198.16;4916744;29;20230;-44
2022/11/11 03:40:46;;;;;;;15.77;3.85;;;;;;;11.74;100.00;102193.66;4918118;29;20209;-44
2022/11/11 03:43:33;;;;;;;9.00;4.07;;;;;;;11.80;100.00;102188.19;4914723;28;20210;-44
2022/11/11 03:46:17;;;;;;;18.85;5.13;;;;;;;11.77;100.00;102204.38;4915082;29;20310;-46
2022/11/11 03:49:01;;;;;;;11.38;3.33;;;;;;;11.78;100.00;102191.81;4918877;29;20198;-46
2022/11/11 03:51:45;;;;;;;14.07;4.35;;;;;;;11.72;100.00;102199.09;4918027;29;20242;-45
2022/11/11 03:54:28;;;;;;;11.57;3.97;;;;;;;11.73;100.00;102206.22;4915827;29;20202;-45
2022/11/11 03:57:34;;;;;;;14.50;4.38;;;;;;;11.74;100.00;102193.66;4920761;29;20195;-48
2022/11/11 04:00:20;;;;;;;16.77;3.67;;;;;;;11.75;100.00;102200.81;4915704;29;20266;-46
2022/11/11 04:12:18;;;;;;;15.95;4.55;;;;;;;11.69;100.00;102190.22;4916099;29;20574;-45
2022/11/11 04:18:04;;;;;;;17.67;4.70;;;;;;;11.75;100.00;102201.69;4920136;29;20209;-44
2022/11/11 04:23:51;;;;;;;13.30;4.38;;;;;;;11.70;100.00;102211.66;4931612;28;20196;-43
2022/11/11 04:26:35;;;;;;;16.77;5.15;;;;;;;11.72;100.00;102206.28;4918375;29;20211;-44
2022/11/11 04:29:28;;;;;;;15.07;4.53;;;;;;;11.78;100.00;102200.75;4914732;29;20195;-46
2022/11/11 04:35:22;;;;;;;18.20;4.40;;;;;;;11.67;100.00;102200.09;4913624;29;20235;-45
2022/11/11 04:41:11;;;;;;;14.35;5.25;;;;;;;11.65;100.00;102209.97;4913778;29;20223;-42
2022/11/11 04:46:59;;;;;;;15.07;4.88;;;;;;;11.68;100.00;102210.81;4919247;29;21281;-45
2022/11/11 04:49:43;;;;;;;17.17;4.63;;;;;;;11.65;100.00;102202.81;4911643;29;20257;-45
2022/11/11 04:52:27;;;;;;;14.85;5.03;;;;;;;11.74;100.00;102199.94;4913619;29;20629;-45
2022/11/11 04:58:16;;;;;;;13.23;5.22;;;;;;;11.70;100.00;102194.69;4919391;29;20197;-44
2022/11/11 05:01:01;;;;;;;17.75;4.85;;;;;;;11.66;100.00;102191.16;4915581;29;20644;-44
2022/11/11 05:03:45;;;;;;;17.98;4.65;;;;;;;11.63;100.00;102201.06;4917593;29;20207;-46
2022/11/11 05:09:32;;;;;;;16.25;4.78;;;;;;;11.74;100.00;102182.94;4917250;29;20699;-44
2022/11/11 05:12:16;;;;;;;13.27;4.72;;;;;;;11.65;100.00;102183.13;4917369;29;20182;-46
2022/11/11 05:21:19;;;;;;;15.25;4.97;;;;;;;11.69;100.00;102198.25;4916717;29;20222;-45
2022/11/11 05:27:06;;;;;;;15.23;5.13;;;;;;;11.72;100.00;102193.72;4914291;29;20324;-45
2022/11/11 05:29:51;;;;;;;15.20;4.55;;;;;;;11.62;100.00;102210.06;4920456;29;20207;-45
2022/11/11 05:32:36;;;;;;;16.95;5.25;;;;;;;11.61;100.00;102208.25;4915836;29;20573;-44
2022/11/11 05:35:20;;;;;;;16.02;5.10;;;;;;;11.63;100.00;102214.50;4915004;29;20595;-43
2022/11/11 05:38:23;;;;;;;15.27;6.03;;;;;;;11.65;100.00;102215.34;4916698;29;20199;-46
2022/11/11 05:41:08;;;;;;;11.05;5.47;;;;;;;11.62;100.00;102216.28;4914334;29;20272;-45
2022/11/11 05:43:52;;;;;;;18.30;6.10;;;;;;;11.62;100.00;102210.06;4914341;29;20195;-45
2022/11/11 05:46:36;;;;;;;18.38;5.82;;;;;;;11.61;100.00;102217.22;4914040;29;20281;-43
2022/11/11 05:49:20;;;;;;;16.65;6.35;;;;;;;11.59;100.00;102223.53;4921887;29;20837;-45
2022/11/11 05:52:05;;;;;;;18.33;6.13;;;;;;;11.57;100.00;102223.56;4928849;28;20197;-42
2022/11/11 05:54:49;;;;;;;19.13;6.15;;;;;;;11.60;100.00;102217.25;4920755;29;20713;-45
2022/11/11 05:57:33;;;;;;;14.27;6.05;;;;;;;11.59;100.00;102231.56;4918976;29;20198;-46
2022/11/11 06:00:17;;;;;;;13.18;5.63;;;;;;;11.63;100.00;102217.19;4923383;29;20255;-44
2022/11/11 06:03:03;;;;;;;19.85;5.82;;;;;;;11.59;100.00;102235.16;4915551;29;20201;-43
2022/11/11 06:05:47;;;;;;;12.95;5.57;;;;;;;11.60;100.00;102236.03;4945761;28;20280;-46
2022/11/11 06:08:31;;;;;;;25.23;6.93;;;;;;;11.58;100.00;102249.47;4917255;29;20246;-43
2022/11/11 06:11:15;;;;;;;19.80;7.10;;;;;;;11.57;100.00;102245.03;4920081;29;20222;-43
2022/11/11 06:13:59;;;;;;;13.98;6.13;;;;;;;11.60;100.00;102239.59;4920247;29;20603;-46
2022/11/11 06:16:43;;;;;;;18.55;6.43;;;;;;;11.57;100.00;102244.13;4916417;29;20277;-49
2022/11/11 06:19:27;;;;;;;15.82;5.95;;;;;;;11.55;100.00;102253.13;4917879;29;20190;-44
2022/11/11 06:22:11;;;;;;;15.43;6.68;;;;;;;11.57;100.00;102261.16;4916581;29;20195;-46
2022/11/11 06:26:11;;;;;;;17.02;6.45;;;;;;;11.56;100.00;102264.72;4915803;29;20186;-44
2022/11/11 06:27:59;;;;;;;18.77;6.38;;;;;;;11.61;100.00;102267.31;4915650;29;20306;-45
2022/11/11 06:30:44;;;;;;;15.93;6.65;;;;;;;11.56;100.00;102264.72;4915340;29;20234;-44
2022/11/11 06:33:28;;;;;;;15.05;5.97;;;;;;;11.59;100.00;102269.16;4917946;29;20207;-44
2022/11/11 06:36:15;;;;;;;19.02;7.00;;;;;;;11.58;100.00;102272.75;4918522;29;20221;-43
2022/11/11 06:38:59;;;;;;;16.67;6.70;;;;;;;11.55;100.00;102273.72;4915788;29;20686;-44
2022/11/11 06:41:43;;;;;;;16.58;6.95;;;;;;;11.55;100.00;102255.81;4915457;29;20635;-46
2022/11/11 06:44:27;;;;;;;14.40;7.18;;;;;;;11.60;100.00;102270.94;4919686;29;20315;-46
2022/11/11 06:47:11;;;;;;;18.55;6.60;;;;;;;11.57;100.00;102262.94;4916137;29;20206;-44
2022/11/11 06:49:55;;;;;;;17.15;7.45;;;;;;;11.65;100.00;102271.72;4917891;29;20195;-44
2022/11/11 06:52:39;;;;;;;16.65;6.93;;;;;;;11.59;100.00;102282.56;4914202;29;20310;-43
2022/11/11 06:55:23;;;;;;;17.42;6.78;;;;;;;11.56;100.00;102272.78;4916456;29;20698;-43
2022/11/11 06:58:09;;;;;;;14.85;6.72;;;;;;;11.48;100.00;102290.84;4918453;29;20230;-43
2022/11/11 07:00:53;;;;;;;18.23;6.93;;;;;;;11.46;100.00;102300.72;4917554;29;20206;-45
2022/11/11 07:03:37;;;;;;;18.58;7.15;;;;;;;11.42;100.00;102286.47;4918712;29;20210;-44
2022/11/11 07:06:21;;;;;;;16.35;7.05;;;;;;;11.38;100.00;102298.16;4915733;29;20578;-43
2022/11/11 07:09:05;;;;;;;16.48;7.20;;;;;;;11.42;100.00;102293.66;4917630;29;20281;-45
2022/11/11 07:11:48;;;;;;;16.63;7.15;;;;;;;11.41;100.00;102295.41;4916525;29;20262;-45
2022/11/11 07:14:33;;;;;;;18.55;7.63;;;;;;;11.41;100.00;102313.34;4917234;29;20718;-47
2022/11/11 07:17:17;;;;;;;16.17;7.45;;;;;;;11.36;100.00;102313.41;4915447;29;20222;-45
2022/11/11 07:20:02;;;;;;;22.98;8.48;;;;;;;11.33;100.00;102313.47;4917420;29;20647;-46
2022/11/11 07:22:47;;;;;;;12.75;7.70;;;;;;;11.34;100.00;102321.47;4913870;29;20203;-46
2022/11/11 07:25:31;;;;;;;22.48;8.35;;;;;;;11.36;100.00;102321.47;4915066;29;20254;-45
2022/11/11 07:28:15;;;;;;;16.50;8.90;;;;;;;11.29;100.00;102327.84;4914776;29;20771;-42
2022/11/11 07:30:59;;;;;;;20.70;8.43;;;;;;;11.28;100.00;102337.72;4915984;29;20202;-44
2022/11/11 07:33:43;;;;;;;19.83;8.43;;;;;;;11.27;100.00;102335.06;4918614;29;20202;-43
2022/11/11 07:36:27;;;;;;;14.57;8.63;;;;;;;11.25;100.00;102337.75;4915956;29;20226;-44
2022/11/11 07:39:11;;;;;;;19.15;9.52;;;;;;;11.27;100.00;102335.94;4921349;29;20226;-44
2022/11/11 07:41:55;;;;;;;20.00;8.98;;;;;;;11.25;100.00;102340.44;4912943;29;20234;-45
2022/11/11 07:44:39;;;;;;;18.00;8.45;;;;;;;11.27;100.00;102343.09;4918286;29;20183;-45
2022/11/11 07:47:23;;;;;;;18.58;8.98;;;;;;;11.25;100.00;102347.59;4916061;29;20253;-47
2022/11/11 07:50:07;;;;;;;21.65;9.18;;;;;;;11.25;100.00;102350.28;4920972;29;20186;-47
2022/11/11 07:52:51;;;;;;;22.17;9.07;;;;;;;11.29;100.00;102343.97;4915779;29;20265;-48
2022/11/11 07:55:35;;;;;;;27.92;9.88;;;;;;;11.24;100.00;102348.50;4914057;29;20599;-47
2022/11/11 07:58:19;;;;;;;20.27;9.70;;;;;;;11.27;100.00;102361.88;4918686;29;20690;-47
2022/11/11 08:01:03;;;;;;;18.85;9.77;;;;;;;11.25;100.00;102364.56;4918563;29;20203;-48
2022/11/11 08:03:50;;;;;;;18.33;9.30;;;;;;;11.37;100.00;102355.47;4918113;29;20203;-47
2022/11/11 08:06:34;;;;;;;20.65;9.50;;;;;;;11.28;100.00;102359.19;4917558;29;20273;-47
2022/11/11 08:09:18;;;;;;;18.83;9.93;;;;;;;11.25;100.00;102364.56;4913711;29;20187;-48
2022/11/11 08:15:06;;;;;;;21.60;10.52;;;;;;;11.24;100.00;102373.56;4914255;29;20257;-49
2022/11/11 08:17:50;;;;;;;23.23;11.02;;;;;;;11.26;100.00;102371.72;4916003;29;20206;-47
2022/11/11 08:20:34;;;;;;;24.17;10.27;;;;;;;11.30;100.00;102373.47;4911950;29;20214;-49
2022/11/11 08:23:24;;;;;;;22.48;11.70;;;;;;;11.30;100.00;102372.53;4918071;29;20219;-48
2022/11/11 08:26:08;;;;;;;18.00;10.63;;;;;;;11.22;100.00;102369.13;4920211;29;20280;-47
2022/11/11 08:28:52;;;;;;;15.73;10.07;;;;;;;11.28;100.00;102360.94;4916159;29;20249;-47
2022/11/11 08:31:38;;;;;;;21.00;10.52;;;;;;;11.30;100.00;102369.88;4925880;29;20729;-48
2022/11/11 08:34:22;;;;;;;25.23;11.93;;;;;;;11.27;100.00;102378.84;4919516;29;20203;-47
2022/11/11 08:37:06;;;;;;;21.50;11.48;;;;;;;11.29;100.00;102385.09;4922653;29;20215;-48
2022/11/11 08:39:51;;;;;;;17.27;11.10;;;;;;;11.26;100.00;102373.50;4914814;29;20249;-49
2022/11/11 08:42:35;;;;;;;20.90;11.75;;;;;;;11.28;100.00;102385.09;4931071;29;20222;-47
2022/11/11 08:45:19;;;;;;;24.20;12.35;;;;;;;11.22;100.00;102385.22;4920940;29;20719;-48
2022/11/11 08:48:04;;;;;;;20.38;12.15;;;;;;;11.28;100.00;102391.38;4914328;29;20765;-45
2022/11/11 08:50:51;;;;;;;19.63;12.02;;;;;;;11.28;100.00;102395.84;4914056;29;20283;-47
2022/11/11 08:53:35;;;;;;;25.10;12.48;;;;;;;11.29;100.00;102394.94;4918709;29;20241;-47
2022/11/11 08:56:19;;;;;;;20.65;12.68;;;;;;;11.30;100.00;102396.69;4912830;29;20622;-47
2022/11/11 08:59:03;;;;;;;23.92;13.98;;;;;;;11.29;100.00;102394.94;4915927;29;20186;-47
2022/11/11 09:01:47;;;;;;;21.88;13.73;;;;;;;11.26;100.00;102387.84;4916946;29;20207;-48
2022/11/11 09:04:31;;;;;;;17.30;12.57;;;;;;;11.31;100.00;102403.84;4919875;29;20235;-49
2022/11/11 09:07:15;;;;;;;21.10;13.25;;;;;;;11.26;100.00;102409.28;4912117;29;20270;-49
2022/11/11 09:09:59;;;;;;;24.90;13.00;;;;;;;11.28;100.00;102415.53;4914265;29;20281;-47
2022/11/11 09:12:43;;;;;;;19.45;13.82;;;;;;;11.28;100.00;102414.63;4917452;29;20198;-47
2022/11/11 09:15:28;;;;;;;20.48;13.27;;;;;;;11.30;100.00;102423.53;4914317;29;20323;-48
2022/11/11 09:18:12;;;;;;;23.95;13.98;;;;;;;11.29;100.00;102419.97;4922652;29;20194;-49
2022/11/11 09:20:58;;;;;;;23.85;13.95;;;;;;;11.30;100.00;102424.44;4917535;29;20203;-47
2022/11/11 09:23:42;;;;;;;30.80;14.23;;;;;;;11.28;100.00;102436.09;4919380;29;20189;-47
2022/11/11 09:26:26;;;;;;;25.42;13.63;;;;;;;11.29;100.00;102437.88;4916199;29;20739;-47
2022/11/11 09:29:10;;;;;;;22.92;13.40;;;;;;;11.30;100.00;102442.31;4917745;29;20271;-48
2022/11/11 09:31:54;;;;;;;23.17;13.35;;;;;;;11.29;100.00;102451.28;4921991;29;20249;-47
2022/11/11 09:34:38;;;;;;;22.27;13.77;;;;;;;11.24;100.00;102454.03;4915538;29;20573;-46
2022/11/11 09:37:22;;;;;;;28.42;13.77;;;;;;;11.30;100.00;102462.00;4917814;29;20257;-49
2022/11/11 09:40:16;;;;;;;28.42;13.98;;;;;;;11.36;100.00;102468.19;4919603;29;20187;-47
2022/11/11 09:43:23;;;;;;;22.77;14.02;;;;;;;11.30;100.00;102462.00;4914470;29;20338;-47
2022/11/11 09:46:21;;;;;;;25.38;13.55;;;;;;;11.29;100.00;102472.75;4922258;29;20218;-48
2022/11/11 09:49:19;;;;;;;21.48;13.25;;;;;;;11.32;100.00;102483.44;4916180;29;20198;-47
2022/11/11 09:52:09;;;;;;;24.60;13.63;;;;;;;11.29;100.00;102486.16;4921822;29;20215;-49
2022/11/11 09:55:32;;;;;;;23.15;13.68;;;;;;;11.31;100.00;102490.59;4912542;29;20277;-48
2022/11/11 09:58:20;;;;;;;29.70;14.80;;;;;;;11.37;100.00;102486.03;4918369;29;20626;-46
2022/11/11 10:01:11;;;;;;;27.52;14.73;;;;;;;11.38;100.00;102479.78;4912946;29;20485;-49
2022/11/11 10:04:07;;;;;;;32.55;14.35;;;;;;;11.39;100.00;102494.97;4924006;29;20202;-48
2022/11/11 10:06:58;;;;;;;25.45;14.60;;;;;;;11.39;100.00;102492.28;4920380;29;20358;-49
2022/11/11 10:09:51;;;;;;;25.02;13.73;;;;;;;11.53;100.00;102501.91;4916929;29;20575;-46
2022/11/11 10:12:45;;;;;;;27.42;13.88;;;;;;;11.47;100.00;102504.66;4913595;29;20203;-47
2022/11/11 10:15:39;;;;;;;22.65;13.65;;;;;;;11.51;100.00;102498.34;4915040;29;20658;-48
2022/11/11 10:18:49;;;;;;;22.00;13.88;;;;;;;11.48;100.00;102487.66;4914785;29;20872;-47
2022/11/11 10:21:48;;;;;;;29.30;14.80;;;;;;;11.50;100.00;102493.00;4921296;29;20326;-47
2022/11/11 10:24:36;;;;;;;21.85;13.93;;;;;;;11.51;100.00;102487.59;4918901;29;20261;-48
2022/11/11 10:27:21;;;;;;;27.27;14.30;;;;;;;11.54;100.00;102487.59;4920548;29;20226;-47
2022/11/11 10:30:27;;;;;;;29.75;13.75;;;;;;;11.58;100.00;102487.53;4919420;29;20200;-48
2022/11/11 10:33:17;;;;;;;23.08;14.02;;;;;;;11.62;100.00;102483.88;4917017;29;20782;-47
2022/11/11 10:36:04;;;;;;;22.70;13.20;;;;;;;11.63;100.00;102483.88;4916853;29;20267;-47
2022/11/11 10:39:13;;;;;;;21.48;12.63;;;;;;;11.69;100.00;102485.53;4921921;29;20183;-49
2022/11/11 10:41:57;;;;;;;23.75;13.20;;;;;;;11.69;100.00;102485.53;4931495;28;20272;-48
2022/11/11 10:44:43;;;;;;;27.48;12.95;;;;;;;11.73;100.00;102479.22;4921351;29;20679;-48
2022/11/11 10:47:35;;;;;;;20.48;12.20;;;;;;;11.73;100.00;102479.22;4922739;29;20230;-48
2022/11/11 10:50:30;;;;;;;22.52;11.98;;;;;;;11.83;100.00;102485.31;4915945;29;20237;-48
2022/11/11 10:53:32;;;;;;;22.10;12.65;;;;;;;11.73;100.00;102480.09;4915174;29;20284;-48
2022/11/11 10:56:35;;;;;;;26.40;11.93;;;;;;;11.82;100.00;102483.53;4922592;29;20736;-47
2022/11/11 10:59:19;;;;;;;25.35;12.90;;;;;;;11.81;100.00;102489.84;4918868;29;20641;-47
2022/11/11 11:02:12;;;;;;;28.60;12.45;;;;;;;11.78;100.00;102482.69;4918452;29;20182;-48
2022/11/11 11:05:07;;;;;;;23.65;12.52;;;;;;;11.79;100.00;102475.56;4919944;29;20246;-48
2022/11/11 11:07:57;;;;;;;28.15;12.52;;;;;;;11.80;100.00;102480.88;4921453;29;20199;-48
2022/11/11 11:10:48;;;;;;;23.75;12.02;;;;;;;11.92;100.00;102479.84;4914312;29;20236;-48
2022/11/11 11:13:43;;;;;;;23.13;12.35;;;;;;;11.80;100.00;102478.19;4916094;29;20267;-47
2022/11/11 11:16:34;;;;;;;19.35;11.18;;;;;;;11.86;100.00;102482.59;4920747;29;20441;-48
2022/11/11 11:19:23;;;;;;;26.27;11.10;;;;;;;11.90;100.00;102501.34;4921255;29;20198;-48
2022/11/11 11:22:07;;;;;;;25.48;11.27;;;;;;;11.88;100.00;102489.72;4912841;29;20215;-50
2022/11/11 11:25:10;;;;;;;20.23;12.13;;;;;;;11.85;100.00;102491.53;4917390;29;20240;-48
2022/11/11 11:28:10;;;;;;;18.52;11.52;;;;;;;11.86;100.00;102494.22;4918089;29;20303;-49
2022/11/11 11:31:06;;;;;;;21.98;11.10;;;;;;;11.83;100.00;102493.38;4919622;29;20422;-48
2022/11/11 11:33:56;;;;;;;25.27;11.32;;;;;;;11.87;100.00;102487.94;4920106;29;20266;-48
2022/11/11 11:36:41;;;;;;;23.08;10.88;;;;;;;11.87;100.00;102501.38;4923031;28;20238;-47
2022/11/11 11:39:36;;;;;;;20.60;11.68;;;;;;;11.88;100.00;102499.59;4914006;29;20253;-47
2022/11/11 11:42:33;;;;;;;24.42;11.40;;;;;;;11.90;100.00;102505.84;4911243;29;20640;-47
2022/11/11 11:45:28;;;;;;;23.92;11.93;;;;;;;11.86;100.00;102507.63;4923225;29;20267;-49
2022/11/11 11:48:12;;;;;;;27.38;11.18;;;;;;;11.91;100.00;102511.16;4920157;29;20585;-50
2022/11/11 11:51:27;;;;;;;21.45;10.82;;;;;;;11.87;100.00;102503.16;4917415;29;20201;-48
2022/11/11 11:54:53;;;;;;;21.05;11.20;;;;;;;11.89;100.00;102510.28;4919433;29;20311;-46
2022/11/11 11:57:50;;;;;;;31.15;10.90;;;;;;;11.94;100.00;102519.19;4918442;29;20664;-48
2022/11/11 12:00:50;;;;;;;22.80;9.65;;;;;;;11.88;100.00;102527.34;4914227;29;20238;-46
2022/11/11 12:03:46;;;;;;;21.77;10.82;;;;;;;11.88;100.00;102513.03;4913970;29;20637;-47
2022/11/11 12:06:53;;;;;;;24.13;10.80;;;;;;;11.89;100.00;102518.34;4918069;29;20246;-48
2022/11/11 12:09:49;;;;;;;18.50;9.82;;;;;;;11.94;100.00;102519.19;4919409;29;20447;-48
2022/11/11 12:13:07;;;;;;;21.02;11.02;;;;;;;11.89;100.00;102518.34;4922409;29;20343;-47
2022/11/11 12:16:02;;;;;;;23.45;11.27;;;;;;;11.87;100.00;102520.16;4912039;29;20664;-47
2022/11/11 12:18:54;;;;;;;20.77;11.18;;;;;;;11.87;100.00;102521.94;4916932;29;20246;-47
2022/11/11 12:22:14;;;;;;;21.13;10.38;;;;;;;11.89;100.00;102525.53;4913989;29;20210;-47
2022/11/11 12:25:16;;;;;;;19.85;10.75;;;;;;;11.89;100.00;102539.84;4924947;29;20251;-47
2022/11/11 12:28:11;;;;;;;21.13;9.82;;;;;;;11.92;100.00;102526.38;4920405;28;20794;-50
2022/11/11 12:31:19;;;;;;;20.77;9.75;;;;;;;11.93;100.00;102533.50;4917041;29;20202;-47
2022/11/11 12:34:25;;;;;;;23.42;9.98;;;;;;;12.01;100.00;102541.44;4914060;29;20206;-48
2022/11/11 12:37:12;;;;;;;19.88;9.95;;;;;;;11.94;100.00;102534.41;4922254;29;20267;-48
2022/11/11 12:40:22;;;;;;;18.20;9.27;;;;;;;11.94;100.00;102537.97;4915491;29;20203;-46
2022/11/11 12:43:15;;;;;;;23.05;10.90;;;;;;;11.93;100.00;102544.25;4917239;28;20218;-49
2022/11/11 12:46:57;;;;;;;20.42;10.10;;;;;;;11.85;100.00;102551.53;4916225;29;20255;-46
2022/11/11 12:50:39;;;;;;;18.55;10.18;;;;;;;11.79;100.00;102534.63;4875941;29;20227;-47
2022/11/11 12:53:39;;;;;;;23.35;10.23;;;;;;;11.82;100.00;102542.63;4922448;28;20276;-45
2022/11/11 12:56:59;;;;;;;24.50;10.75;;;;;;;11.78;100.00;102544.47;4914716;29;20273;-47
2022/11/11 13:00:02;;;;;;;24.50;10.55;;;;;;;11.81;100.00;102548.94;4921985;29;20260;-47
2022/11/11 13:02:55;;;;;;;25.08;10.57;;;;;;;11.77;100.00;102556.13;4914794;29;20202;-47
2022/11/11 13:05:47;;;;;;;18.50;10.68;;;;;;;11.69;100.00;102550.88;4921895;29;20215;-47
2022/11/11 13:08:49;;;;;;;20.10;10.05;;;;;;;11.73;100.00;102551.72;4913029;29;20652;-48
2022/11/11 13:11:58;;;;;;;24.98;10.55;;;;;;;11.73;100.00;102549.03;4920552;29;20591;-48
2022/11/11 13:15:02;;;;;;;17.90;10.50;;;;;;;11.67;100.00;102546.44;4916244;29;20199;-48
2022/11/11 13:17:46;;;;;;;21.58;11.60;;;;;;;11.66;100.00;102544.69;4921516;29;20256;-49
2022/11/11 13:21:06;;;;;;;23.23;10.98;;;;;;;11.65;100.00;102549.13;4919043;28;20194;-49
2022/11/11 13:23:52;;;;;;;23.80;10.18;;;;;;;11.67;100.00;102557.16;4897058;28;20637;-47
2022/11/11 13:26:47;;;;;;;21.73;10.52;;;;;;;11.69;100.00;102549.97;4916049;29;20227;-46
2022/11/11 13:29:56;;;;;;;21.15;10.85;;;;;;;11.68;100.00;102550.91;4917447;29;20222;-49
2022/11/11 13:32:52;;;;;;;18.90;12.52;;;;;;;11.70;100.00;102546.41;4917446;29;20294;-47
2022/11/11 13:35:42;;;;;;;20.85;11.20;;;;;;;11.64;100.00;102546.50;4915755;29;20239;-46
2022/11/11 13:38:38;;;;;;;17.63;10.55;;;;;;;11.65;100.00;102554.50;4917431;29;20194;-48
2022/11/11 13:41:27;;;;;;;20.08;10.68;;;;;;;11.60;100.00;102551.00;4913829;29;20250;-48
2022/11/11 13:44:21;;;;;;;16.55;10.43;;;;;;;11.57;100.00;102537.66;4916353;29;20274;-48
2022/11/11 13:47:12;;;;;;;22.70;10.98;;;;;;;11.58;100.00;102551.94;4912348;29;20230;-47
2022/11/11 13:50:01;;;;;;;23.23;11.60;;;;;;;11.65;100.00;102542.88;4917379;29;20285;-49
2022/11/11 13:53:02;;;;;;;17.42;10.13;;;;;;;11.57;100.00;102550.16;4919273;29;20234;-47
2022/11/11 13:55:47;;;;;;;18.05;11.80;;;;;;;11.54;100.00;102557.38;4912368;29;20251;-46